Terminal Aerodrome Forecast
Issued by NWS

Home | Current Version | Previous Version | Text Only | Print | Product List | Glossary On
Versions: 1 2 3 4 5 6 7 8 9 10 11 12 13 14 15 16 17 18
274
FTUS43 KAPX 242327
TAFPLN
TAF
KPLN 242327Z 2500/2524 28008KT P6SM BKN080
     FM250300 29004KT P6SM VCSH BKN050
     FM250400 VRB03KT P6SM VCSH BKN050
     FM251200 32004KT P6SM VCSH OVC030
     FM251600 31005KT P6SM VCSH OVC035
     FM251800 33005KT P6SM BKN035=

USA.gov is the U.S. government's official web portal to all federal, state and local government web resources and services.